createdAt,value
2024-02-15T00:01:43.490Z,13.70
2024-02-15T00:04:12.206Z,13.70
2024-02-15T00:06:39.149Z,13.70
2024-02-15T00:09:06.005Z,13.70
2024-02-15T00:11:33.697Z,13.70
2024-02-15T00:14:01.376Z,13.70
2024-02-15T00:16:28.659Z,13.70
2024-02-15T00:18:56.621Z,13.70
2024-02-15T00:21:24.031Z,13.70
2024-02-15T00:23:51.160Z,13.70
2024-02-15T00:26:17.997Z,13.70
2024-02-15T00:28:44.721Z,13.70
2024-02-15T00:31:11.436Z,13.70
2024-02-15T00:33:38.455Z,13.70
2024-02-15T00:36:06.182Z,13.70
2024-02-15T00:38:33.217Z,13.80
2024-02-15T00:41:03.564Z,13.80
2024-02-15T00:43:30.543Z,13.80
2024-02-15T00:45:57.929Z,13.80
2024-02-15T00:48:27.534Z,13.80
2024-02-15T00:50:54.530Z,13.80
2024-02-15T00:53:21.621Z,13.80
2024-02-15T00:55:48.310Z,13.80
2024-02-15T00:58:15.041Z,13.80
2024-02-15T01:00:41.773Z,13.80
2024-02-15T01:03:08.615Z,13.80
2024-02-15T01:05:35.891Z,13.70
2024-02-15T01:08:02.668Z,13.70
2024-02-15T01:10:29.395Z,13.70
2024-02-15T01:12:56.098Z,13.70
2024-02-15T01:15:22.803Z,13.70
2024-02-15T01:17:49.692Z,13.70
2024-02-15T01:20:16.744Z,13.70
2024-02-15T01:22:45.378Z,13.80
2024-02-15T01:25:12.236Z,13.80
2024-02-15T01:27:40.044Z,13.80
2024-02-15T01:30:07.484Z,13.80
2024-02-15T01:32:34.308Z,13.80
2024-02-15T01:35:01.265Z,13.80
2024-02-15T01:37:27.992Z,13.80
2024-02-15T01:39:54.685Z,13.90
2024-02-15T01:42:21.382Z,13.90
2024-02-15T01:44:50.639Z,13.90
2024-02-15T01:47:20.670Z,13.90
2024-02-15T01:49:50.099Z,13.90
2024-02-15T01:52:17.150Z,13.90
2024-02-15T01:54:44.002Z,13.90
2024-02-15T01:57:10.715Z,13.90
2024-02-15T01:59:37.757Z,14.00
2024-02-15T02:02:04.920Z,14.00
2024-02-15T02:04:32.846Z,14.00
2024-02-15T02:07:00.412Z,14.00
2024-02-15T02:09:27.227Z,14.00
2024-02-15T02:11:54.041Z,14.00
2024-02-15T02:14:21.729Z,14.00
2024-02-15T02:16:48.458Z,14.00
2024-02-15T02:19:15.322Z,13.90
2024-02-15T02:21:42.157Z,13.90
2024-02-15T02:24:15.796Z,13.90
2024-02-15T02:26:42.683Z,13.80
2024-02-15T02:29:09.447Z,13.80
2024-02-15T02:31:36.567Z,13.80
2024-02-15T02:34:04.799Z,13.80
2024-02-15T02:36:31.717Z,13.70
2024-02-15T02:39:02.039Z,13.70
2024-02-15T02:41:29.617Z,13.70
2024-02-15T02:43:57.885Z,13.70
2024-02-15T02:46:24.659Z,13.70
2024-02-15T02:48:51.509Z,13.60
2024-02-15T02:51:18.535Z,13.60
2024-02-15T02:53:45.236Z,13.60
2024-02-15T02:56:11.992Z,13.60
2024-02-15T02:58:38.739Z,13.70
2024-02-15T03:01:05.558Z,13.70
2024-02-15T03:03:32.293Z,13.70
2024-02-15T03:05:59.670Z,13.70
2024-02-15T03:08:26.434Z,13.80
2024-02-15T03:10:53.163Z,13.80
2024-02-15T03:13:22.771Z,13.80
2024-02-15T03:15:49.482Z,13.80
2024-02-15T03:18:19.156Z,13.80
2024-02-15T03:20:45.979Z,13.90
2024-02-15T03:23:13.021Z,13.90
2024-02-15T03:25:39.917Z,13.90
2024-02-15T03:28:06.650Z,13.90
2024-02-15T03:30:35.197Z,13.90
2024-02-15T03:33:02.907Z,14.00
2024-02-15T03:35:32.458Z,14.00
2024-02-15T03:37:59.953Z,14.00
2024-02-15T03:40:31.327Z,14.00
2024-02-15T03:42:58.180Z,14.00
2024-02-15T03:45:26.143Z,14.00
2024-02-15T03:47:54.026Z,14.00
2024-02-15T03:50:22.636Z,14.00
2024-02-15T03:52:49.995Z,14.00
2024-02-15T03:55:16.849Z,14.00
2024-02-15T03:57:47.087Z,14.00
2024-02-15T04:00:21.885Z,14.00
2024-02-15T04:02:50.192Z,14.00
2024-02-15T04:05:19.171Z,14.00
2024-02-15T04:07:46.179Z,14.00
2024-02-15T04:10:13.407Z,14.00
2024-02-15T04:12:42.988Z,14.00
2024-02-15T04:15:14.009Z,14.00
2024-02-15T04:17:41.987Z,14.00
2024-02-15T04:20:10.295Z,14.00
2024-02-15T04:22:39.809Z,14.00
2024-02-15T04:25:07.441Z,14.00
2024-02-15T04:27:34.594Z,14.00
2024-02-15T04:30:01.305Z,14.00
2024-02-15T04:32:30.043Z,14.00
2024-02-15T04:34:56.794Z,14.00
2024-02-15T04:37:24.071Z,14.00
2024-02-15T04:39:50.711Z,14.00
2024-02-15T04:42:19.555Z,13.90
2024-02-15T04:44:46.232Z,13.90
2024-02-15T04:47:12.864Z,13.80
2024-02-15T04:49:39.606Z,13.80
2024-02-15T04:52:07.493Z,13.70
2024-02-15T04:54:34.274Z,13.70
2024-02-15T04:57:02.037Z,13.60
2024-02-15T04:59:30.172Z,13.60
2024-02-15T05:01:57.387Z,13.60
2024-02-15T05:04:25.567Z,13.60
2024-02-15T05:06:53.927Z,13.70
2024-02-15T05:09:20.780Z,13.70
2024-02-15T05:11:48.584Z,13.70
2024-02-15T05:14:20.068Z,13.70
2024-02-15T05:16:48.833Z,13.70
2024-02-15T05:19:17.105Z,13.70
2024-02-15T05:21:47.519Z,13.70
2024-02-15T05:24:14.892Z,13.70
2024-02-15T05:26:43.830Z,13.80
2024-02-15T05:29:12.166Z,13.80
2024-02-15T05:31:39.221Z,13.80
2024-02-15T05:34:09.063Z,13.80
2024-02-15T05:36:35.861Z,13.80
2024-02-15T05:39:04.463Z,13.90
2024-02-15T05:41:31.286Z,13.90
2024-02-15T05:43:58.953Z,13.90
2024-02-15T05:46:25.696Z,13.90
2024-02-15T05:48:52.898Z,13.90
2024-02-15T05:51:19.724Z,13.90
2024-02-15T05:53:46.736Z,14.00
2024-02-15T05:56:14.515Z,14.00
2024-02-15T05:58:41.137Z,14.00
2024-02-15T06:01:08.045Z,14.00
2024-02-15T06:03:35.369Z,14.00
2024-02-15T06:06:03.689Z,14.10
2024-02-15T06:08:33.090Z,14.10
2024-02-15T06:10:59.781Z,14.10
2024-02-15T06:13:26.918Z,14.10
2024-02-15T06:15:54.920Z,14.10
2024-02-15T06:18:29.811Z,14.10
2024-02-15T06:21:03.334Z,14.10
2024-02-15T06:23:30.121Z,14.10
2024-02-15T06:25:58.995Z,14.10
2024-02-15T06:28:44.195Z,14.10
2024-02-15T06:31:30.128Z,14.20
2024-02-15T06:34:15.828Z,14.20
2024-02-15T06:37:06.994Z,14.20
2024-02-15T06:39:42.710Z,14.20
2024-02-15T06:42:12.365Z,14.10
2024-02-15T06:44:41.433Z,14.10
2024-02-15T06:47:08.339Z,14.10
2024-02-15T06:49:35.762Z,14.10
2024-02-15T06:52:03.577Z,14.10
2024-02-15T06:54:30.282Z,14.10
2024-02-15T06:56:57.010Z,14.10
2024-02-15T06:59:23.757Z,14.20
2024-02-15T07:01:53.158Z,14.20
2024-02-15T07:04:21.609Z,14.20
2024-02-15T07:06:50.455Z,14.20
2024-02-15T07:09:19.045Z,14.20
2024-02-15T07:11:50.423Z,14.20
2024-02-15T07:14:18.568Z,14.20
2024-02-15T07:16:48.638Z,14.20
2024-02-15T07:19:16.667Z,14.30
2024-02-15T07:21:43.541Z,14.30
2024-02-15T07:24:10.887Z,14.30
2024-02-15T07:26:37.951Z,14.30
2024-02-15T07:29:08.958Z,14.30
2024-02-15T07:31:35.858Z,14.30
2024-02-15T07:34:02.883Z,14.30
2024-02-15T07:36:29.786Z,14.30
2024-02-15T07:39:02.225Z,14.30
2024-02-15T07:41:29.759Z,14.30
2024-02-15T07:43:56.834Z,14.30
2024-02-15T07:46:25.199Z,14.30
2024-02-15T07:48:52.160Z,14.30
2024-02-15T07:51:20.847Z,14.40
2024-02-15T07:53:47.624Z,14.40
2024-02-15T07:56:15.350Z,14.40
2024-02-15T07:58:52.070Z,14.40
2024-02-15T08:01:22.179Z,14.50
2024-02-15T08:03:49.214Z,14.50
2024-02-15T08:06:16.894Z,14.50
2024-02-15T08:08:46.856Z,14.60
2024-02-15T08:11:16.704Z,14.70
2024-02-15T08:13:49.031Z,14.70
2024-02-15T08:16:17.180Z,14.80
2024-02-15T08:18:45.224Z,14.90
2024-02-15T08:21:12.109Z,15.00
2024-02-15T08:23:39.256Z,15.10
2024-02-15T08:26:06.276Z,15.20
2024-02-15T08:28:33.114Z,15.20
2024-02-15T08:30:59.786Z,15.30
2024-02-15T08:33:29.510Z,15.30
2024-02-15T08:35:56.720Z,15.40
2024-02-15T08:38:24.157Z,15.40
2024-02-15T08:40:50.907Z,15.50
2024-02-15T08:43:17.803Z,15.50
2024-02-15T08:45:44.697Z,15.60
2024-02-15T08:48:12.068Z,15.60
2024-02-15T08:50:39.688Z,15.70
2024-02-15T08:53:07.716Z,15.80
2024-02-15T08:55:36.802Z,15.90
2024-02-15T08:58:04.175Z,16.00
2024-02-15T09:00:31.311Z,16.10
2024-02-15T09:02:58.495Z,16.20
2024-02-15T09:05:25.644Z,16.30
2024-02-15T09:07:52.676Z,16.40
2024-02-15T09:10:19.499Z,16.40
2024-02-15T09:12:48.349Z,16.50
2024-02-15T09:15:15.531Z,16.50
2024-02-15T09:17:43.653Z,16.50
2024-02-15T09:20:15.638Z,16.50
2024-02-15T09:22:43.080Z,16.50
2024-02-15T09:25:10.745Z,16.50
2024-02-15T09:27:37.915Z,16.60
2024-02-15T09:30:08.775Z,16.60
2024-02-15T09:32:36.052Z,16.60
2024-02-15T09:35:06.166Z,16.60
2024-02-15T09:37:35.645Z,16.60
2024-02-15T09:40:07.419Z,16.70
2024-02-15T09:42:37.249Z,16.80
2024-02-15T09:45:04.300Z,16.80
2024-02-15T09:47:36.265Z,16.90
2024-02-15T09:50:04.450Z,17.00
2024-02-15T09:52:35.318Z,17.10
2024-02-15T09:55:03.955Z,17.10
2024-02-15T09:57:33.049Z,17.20
2024-02-15T10:00:00.826Z,17.30
2024-02-15T10:02:27.694Z,17.40
2024-02-15T10:04:57.415Z,17.40
2024-02-15T10:07:25.780Z,17.50
2024-02-15T10:09:53.604Z,17.60
2024-02-15T10:12:22.106Z,17.70
2024-02-15T10:14:52.575Z,17.70
2024-02-15T10:17:20.109Z,17.80
2024-02-15T10:20:03.533Z,17.90
2024-02-15T10:22:30.297Z,17.90
2024-02-15T10:25:17.230Z,18.00
2024-02-15T10:27:47.713Z,18.10
2024-02-15T10:30:21.898Z,18.10
2024-02-15T10:32:49.775Z,18.30
2024-02-15T10:35:23.307Z,18.50
2024-02-15T10:37:51.356Z,18.70
2024-02-15T10:40:24.500Z,18.90
2024-02-15T10:42:52.715Z,19.10
2024-02-15T10:45:20.489Z,19.40
2024-02-15T10:47:50.616Z,19.60
2024-02-15T10:50:17.455Z,19.90
2024-02-15T10:52:58.886Z,20.20
2024-02-15T10:55:39.848Z,20.40
2024-02-15T10:58:06.959Z,20.50
2024-02-15T11:00:41.038Z,20.60
2024-02-15T11:03:09.379Z,20.60
2024-02-15T11:05:37.331Z,20.70
2024-02-15T11:08:05.698Z,20.90
2024-02-15T11:10:32.816Z,21.20
2024-02-15T11:13:00.803Z,21.70
2024-02-15T11:15:54.345Z,22.20
2024-02-15T11:18:45.551Z,22.90
2024-02-15T11:21:13.328Z,23.50
2024-02-15T11:23:40.896Z,23.90
2024-02-15T11:26:09.667Z,24.20
2024-02-15T11:28:40.074Z,24.50
2024-02-15T11:31:10.581Z,24.70
2024-02-15T11:33:37.791Z,24.90
2024-02-15T11:36:08.795Z,25.00
2024-02-15T11:38:35.843Z,25.10
2024-02-15T11:41:10.070Z,25.10
2024-02-15T11:43:51.242Z,25.10
2024-02-15T11:46:19.498Z,25.00
2024-02-15T11:48:47.412Z,25.00
2024-02-15T11:51:44.502Z,25.10
2024-02-15T11:54:15.509Z,25.20
2024-02-15T11:56:47.828Z,25.20
2024-02-15T11:59:33.811Z,25.20
2024-02-15T12:02:19.106Z,25.10
2024-02-15T12:05:06.109Z,25.00
2024-02-15T12:07:52.869Z,24.90
2024-02-15T12:10:38.655Z,24.80
2024-02-15T12:13:24.002Z,24.60
2024-02-15T12:16:17.148Z,24.50
2024-02-15T12:18:44.417Z,24.60
2024-02-15T12:21:13.546Z,24.90
2024-02-15T12:23:42.134Z,25.20
2024-02-15T12:26:09.148Z,25.40
2024-02-15T12:28:35.926Z,25.70
2024-02-15T12:31:02.704Z,26.30
2024-02-15T12:33:29.512Z,27.20
2024-02-15T12:36:09.071Z,28.00
2024-02-15T12:38:38.920Z,28.60
2024-02-15T12:41:21.536Z,28.80
2024-02-15T12:43:53.178Z,28.90
2024-02-15T12:46:20.676Z,28.80
2024-02-15T12:48:47.761Z,28.80
2024-02-15T12:51:17.652Z,28.90
2024-02-15T12:53:44.785Z,28.90
2024-02-15T12:56:11.452Z,28.80
2024-02-15T12:58:40.146Z,28.60
2024-02-15T13:01:06.853Z,28.40
2024-02-15T13:03:36.015Z,28.10
2024-02-15T13:06:02.989Z,27.80
2024-02-15T13:08:29.674Z,27.40
2024-02-15T13:10:57.410Z,27.00
2024-02-15T13:13:24.208Z,26.60
2024-02-15T13:15:53.561Z,26.20
2024-02-15T13:18:20.809Z,25.70
2024-02-15T13:20:50.893Z,25.30
2024-02-15T13:23:23.287Z,24.90
2024-02-15T13:25:51.228Z,24.60
2024-02-15T13:28:17.918Z,24.30
2024-02-15T13:30:46.279Z,24.00
2024-02-15T13:33:14.255Z,23.70
2024-02-15T13:35:41.114Z,23.40
2024-02-15T13:38:10.058Z,23.10
2024-02-15T13:40:36.669Z,22.90
2024-02-15T13:43:05.927Z,22.70
2024-02-15T13:45:34.173Z,22.50
2024-02-15T13:48:04.395Z,22.40
2024-02-15T13:50:31.800Z,22.20
2024-02-15T13:52:59.317Z,22.10
2024-02-15T13:55:26.767Z,22.00
2024-02-15T13:57:53.574Z,21.90
2024-02-15T14:00:23.657Z,21.80
2024-02-15T14:02:56.848Z,21.70
2024-02-15T14:05:26.329Z,21.60
2024-02-15T14:08:03.419Z,21.40
2024-02-15T14:10:31.084Z,21.30
2024-02-15T14:13:01.124Z,21.20
2024-02-15T14:15:28.284Z,21.10
2024-02-15T14:17:55.074Z,21.00
2024-02-15T14:20:22.482Z,20.90
2024-02-15T14:22:50.379Z,20.90
2024-02-15T14:25:17.519Z,20.80
2024-02-15T14:27:44.285Z,20.70
2024-02-15T14:30:30.121Z,20.60
2024-02-15T14:33:06.555Z,20.50
2024-02-15T14:35:37.442Z,20.40
2024-02-15T14:38:07.076Z,20.30
2024-02-15T14:43:07.390Z,20.20
2024-02-15T14:45:36.372Z,20.20
2024-02-15T14:48:04.226Z,20.10
2024-02-15T14:50:31.419Z,20.10
2024-02-15T14:52:58.215Z,20.10
2024-02-15T14:55:24.918Z,20.00
2024-02-15T14:57:51.666Z,20.10
2024-02-15T15:00:18.641Z,20.00
2024-02-15T15:02:47.695Z,20.00
2024-02-15T15:05:33.416Z,20.00
2024-02-15T15:08:18.547Z,19.90
2024-02-15T15:11:06.835Z,19.90
2024-02-15T15:13:34.012Z,19.90
2024-02-15T15:16:01.363Z,19.90
2024-02-15T15:18:28.999Z,19.80
2024-02-15T15:20:56.694Z,19.80
2024-02-15T15:23:23.318Z,19.80
2024-02-15T15:25:50.004Z,19.80
2024-02-15T15:28:16.639Z,19.80
2024-02-15T15:30:49.567Z,19.80
2024-02-15T15:33:17.081Z,19.70
2024-02-15T15:35:44.268Z,19.70
2024-02-15T15:38:11.598Z,19.70
2024-02-15T15:40:38.410Z,19.60
2024-02-15T15:43:06.233Z,19.60
2024-02-15T15:45:38.650Z,19.50
2024-02-15T15:48:05.764Z,19.50
2024-02-15T15:50:36.433Z,19.50
2024-02-15T15:53:04.271Z,19.40
2024-02-15T15:55:31.375Z,19.40
2024-02-15T15:57:58.206Z,19.30
2024-02-15T16:00:24.981Z,19.30
2024-02-15T16:02:57.349Z,19.20
2024-02-15T16:05:24.944Z,19.20
2024-02-15T16:07:53.017Z,19.10
2024-02-15T16:10:21.622Z,19.10
2024-02-15T16:12:48.332Z,19.00
2024-02-15T16:15:15.114Z,19.00
2024-02-15T16:17:45.501Z,18.90
2024-02-15T16:20:14.760Z,18.80
2024-02-15T16:22:42.065Z,18.70
2024-02-15T16:25:12.449Z,18.70
2024-02-15T16:27:40.772Z,18.60
2024-02-15T16:30:14.902Z,18.50
2024-02-15T16:32:42.365Z,18.50
2024-02-15T16:35:16.146Z,18.40
2024-02-15T16:37:43.663Z,18.40
2024-02-15T16:40:12.939Z,18.30
2024-02-15T16:42:45.169Z,18.20
2024-02-15T16:45:13.380Z,18.20
2024-02-15T16:47:40.839Z,18.10
2024-02-15T16:50:11.149Z,18.00
2024-02-15T16:52:41.002Z,18.00
2024-02-15T16:55:09.504Z,17.90
2024-02-15T16:57:36.660Z,17.90
2024-02-15T17:00:08.244Z,17.80
2024-02-15T17:02:40.987Z,17.80
2024-02-15T17:05:08.897Z,17.70
2024-02-15T17:07:36.209Z,17.70
2024-02-15T17:10:02.864Z,17.60
2024-02-15T17:12:32.227Z,17.50
2024-02-15T17:14:58.897Z,17.50
2024-02-15T17:17:25.624Z,17.40
2024-02-15T17:19:52.849Z,17.40
2024-02-15T17:22:19.768Z,17.40
2024-02-15T17:24:46.525Z,17.30
2024-02-15T17:27:13.370Z,17.30
2024-02-15T17:29:40.988Z,17.30
2024-02-15T17:32:07.836Z,17.30
2024-02-15T17:34:34.575Z,17.30
2024-02-15T17:37:01.205Z,17.30
2024-02-15T17:39:27.869Z,17.20
2024-02-15T17:41:54.779Z,17.20
2024-02-15T17:44:21.893Z,17.20
2024-02-15T17:46:48.535Z,17.20
2024-02-15T17:49:15.489Z,17.20
2024-02-15T17:51:44.493Z,17.20
2024-02-15T17:54:12.013Z,17.10
2024-02-15T17:56:38.710Z,17.10
2024-02-15T17:59:05.389Z,17.10
2024-02-15T18:01:38.493Z,17.10
2024-02-15T18:04:05.578Z,17.00
2024-02-15T18:06:32.268Z,17.00
2024-02-15T18:08:58.982Z,17.00
2024-02-15T18:11:25.778Z,17.00
2024-02-15T18:13:52.489Z,16.90
2024-02-15T18:16:19.153Z,16.90
2024-02-15T18:18:46.180Z,16.80
2024-02-15T18:21:13.039Z,16.80
2024-02-15T18:23:40.329Z,16.70
2024-02-15T18:26:07.131Z,16.70
2024-02-15T18:28:34.010Z,16.70
2024-02-15T18:31:00.790Z,16.60
2024-02-15T18:33:30.833Z,16.60
2024-02-15T18:35:59.312Z,16.60
2024-02-15T18:38:29.343Z,16.60
2024-02-15T18:40:58.908Z,16.50
2024-02-15T18:43:28.545Z,16.50
2024-02-15T18:45:55.226Z,16.50
2024-02-15T18:48:22.117Z,16.50
2024-02-15T18:50:49.292Z,16.40
2024-02-15T18:53:16.742Z,16.40
2024-02-15T18:55:43.573Z,16.40
2024-02-15T18:58:10.441Z,16.40
2024-02-15T19:00:45.753Z,16.30
2024-02-15T19:03:18.672Z,16.30
2024-02-15T19:05:45.875Z,16.30
2024-02-15T19:08:12.581Z,16.30
2024-02-15T19:10:39.224Z,16.20
2024-02-15T19:13:05.880Z,16.20
2024-02-15T19:15:33.288Z,16.20
2024-02-15T19:18:05.165Z,16.20
2024-02-15T19:20:33.485Z,16.20
2024-02-15T19:23:00.108Z,16.20
2024-02-15T19:25:27.037Z,16.20
2024-02-15T19:27:54.375Z,16.10
2024-02-15T19:30:21.398Z,16.10
2024-02-15T19:32:49.948Z,16.10
2024-02-15T19:35:17.834Z,16.10
2024-02-15T19:37:46.529Z,16.00
2024-02-15T19:40:17.679Z,16.00
2024-02-15T19:42:44.415Z,16.00
2024-02-15T19:45:11.116Z,16.00
2024-02-15T19:47:37.844Z,16.00
2024-02-15T19:50:05.227Z,15.90
2024-02-15T19:52:32.164Z,15.90
2024-02-15T19:54:59.438Z,15.90
2024-02-15T19:57:26.382Z,15.80
2024-02-15T19:59:54.155Z,15.80
2024-02-15T20:02:21.062Z,15.80
2024-02-15T20:04:48.069Z,15.80
2024-02-15T20:07:14.817Z,15.70
2024-02-15T20:09:47.251Z,15.70
2024-02-15T20:12:15.372Z,15.70
2024-02-15T20:14:42.633Z,15.70
2024-02-15T20:17:11.134Z,15.70
2024-02-15T20:19:38.904Z,15.60
2024-02-15T20:22:05.748Z,15.60
2024-02-15T20:24:32.520Z,15.60
2024-02-15T20:27:00.888Z,15.60
2024-02-15T20:29:33.777Z,15.50
2024-02-15T20:32:00.517Z,15.50
2024-02-15T20:34:27.910Z,15.50
2024-02-15T20:36:54.783Z,15.40
2024-02-15T20:39:22.082Z,15.40
2024-02-15T20:41:50.152Z,15.40
2024-02-15T20:44:17.247Z,15.40
2024-02-15T20:46:44.823Z,15.30
2024-02-15T20:49:14.131Z,15.30
2024-02-15T20:51:41.079Z,15.30
2024-02-15T20:54:07.783Z,15.20
2024-02-15T20:56:36.949Z,15.20
2024-02-15T20:59:06.669Z,15.10
2024-02-15T21:01:35.657Z,15.10
2024-02-15T21:04:06.107Z,15.10
2024-02-15T21:06:38.465Z,15.00
2024-02-15T21:09:07.051Z,15.00
2024-02-15T21:11:33.938Z,15.00
2024-02-15T21:14:01.326Z,14.90
2024-02-15T21:16:33.185Z,14.90
2024-02-15T21:19:02.570Z,14.90
2024-02-15T21:21:29.401Z,14.80
2024-02-15T21:23:56.241Z,14.80
2024-02-15T21:26:24.456Z,14.70
2024-02-15T21:28:51.101Z,14.70
2024-02-15T21:31:17.842Z,14.70
2024-02-15T21:33:45.134Z,14.70
2024-02-15T21:36:12.490Z,14.60
2024-02-15T21:38:39.790Z,14.60
2024-02-15T21:41:08.172Z,14.60
2024-02-15T21:43:35.438Z,14.60
2024-02-15T21:46:02.890Z,14.60
2024-02-15T21:48:32.765Z,14.60
2024-02-15T21:50:59.861Z,14.50
2024-02-15T21:53:27.743Z,14.50
2024-02-15T21:55:54.565Z,14.50
2024-02-15T21:58:21.311Z,14.50
2024-02-15T22:00:48.095Z,14.50
2024-02-15T22:03:15.075Z,14.50
2024-02-15T22:05:42.018Z,14.40
2024-02-15T22:08:09.985Z,14.40
2024-02-15T22:10:36.617Z,14.40
2024-02-15T22:13:03.437Z,14.40
2024-02-15T22:15:33.783Z,14.40
2024-02-15T22:18:00.769Z,14.30
2024-02-15T22:20:27.543Z,14.30
2024-02-15T22:22:55.365Z,14.30
2024-02-15T22:25:23.255Z,14.30
2024-02-15T22:27:50.414Z,14.20
2024-02-15T22:30:18.811Z,14.20
2024-02-15T22:32:46.056Z,14.20
2024-02-15T22:35:12.913Z,14.20
2024-02-15T22:37:39.792Z,14.10
2024-02-15T22:40:07.102Z,14.10
2024-02-15T22:42:33.786Z,14.10
2024-02-15T22:45:00.559Z,14.10
2024-02-15T22:47:28.429Z,14.00
2024-02-15T22:49:55.298Z,14.00
2024-02-15T22:52:22.005Z,14.00
2024-02-15T22:54:50.286Z,14.00
2024-02-15T22:57:17.467Z,14.00
2024-02-15T22:59:47.577Z,13.90
2024-02-15T23:02:14.250Z,13.90
2024-02-15T23:04:40.957Z,13.90
2024-02-15T23:07:10.791Z,13.80
2024-02-15T23:09:37.724Z,13.80
2024-02-15T23:12:04.850Z,13.80
2024-02-15T23:14:31.882Z,13.80
2024-02-15T23:16:58.829Z,13.80
2024-02-15T23:19:26.927Z,13.70
2024-02-15T23:21:53.785Z,13.70
2024-02-15T23:24:20.700Z,13.70
2024-02-15T23:26:47.608Z,13.70
2024-02-15T23:29:16.882Z,13.70
2024-02-15T23:31:43.677Z,13.70
2024-02-15T23:34:10.833Z,13.70
2024-02-15T23:36:56.360Z,13.70
2024-02-15T23:39:41.708Z,13.70
2024-02-15T23:42:08.469Z,13.60
2024-02-15T23:44:35.303Z,13.60
2024-02-15T23:47:02.044Z,13.60
2024-02-15T23:49:28.988Z,13.60
2024-02-15T23:51:56.068Z,13.60
2024-02-15T23:54:23.002Z,13.60
2024-02-15T23:56:49.851Z,13.60
2024-02-15T23:59:16.590Z,13.60
